Superfast Baleares — EBXD — position and weather

sailwx.info

Track history (hours):
 
Tides and Currents Weather Stations Pressure Air Temp Water Temp Dewpoint Dewpoint Depression Visibility Wind Speed Wind Dir Waves Ship Positions

Superfast Baleares

Last reported at 2014-Aug-01 03:33 UTC. Time now 2014-Aug-01 03:53 UTC.
Position N 39°26' E 001°54'.

Length 210 m; draft 7 m.

Type: Cargo ship. MMSI: 225405000.

Date/timePositionNaut miles runAvg speedWind from/ knotsBaromVisibWave heightAir tempDewpointWater temp
2014-Aug-01 03:33N 39°26' E 001°54'2222.0
2014-Aug-01 02:33N 39°26' E 001°25'72 5.4
2014-Jul-31 13:05N 39°18' W 000°08'1721.7
2014-Jul-31 12:19N 39°05' E 000°05'1924.4
2014-Jul-31 11:32N 38°50' E 000°21'1919.4
2014-Jul-31 10:33N 38°31' E 000°18'2121.1
2014-Jul-31 09:33N 38°14' E 000°02'2423.8
2014-Jul-31 08:33N 37°54' W 000°14'2423.6
2014-Jul-31 07:33N 37°35' W 000°31'2323.1
2014-Jul-31 06:33N 37°19' W 000°53'2322.9
2014-Jul-31 05:33N 37°04' W 001°15'2222.0
2014-Jul-31 04:33N 36°49' W 001°35'2221.9
2014-Jul-31 03:32N 36°34' W 001°55'2121.3
2014-Jul-31 02:33N 36°22' W 002°17'20520.4
2014-Jul-30 16:28N 36°27' W 006°32'  
2014-Jul-23 10:18N 36°32' W 006°17'  
Track history (hours):
 
Tides and Currents Weather Stations Pressure Air Temp Water Temp Dewpoint Dewpoint Depression Visibility Wind Speed Wind Dir Waves Ship Positions

Superfast Baleares

Last reported at 2014-Aug-01 03:33 UTC. Time now 2014-Aug-01 03:53 UTC.
Position N 39°26' E 001°54'.

Length 210 m; draft 7 m.

Type: Cargo ship. MMSI: 225405000.

Date/timePositionNaut miles runAvg speedWind from/ knotsBaromVisibWave heightAir tempDewpointWater temp
2014-Aug-01 03:33N 39°26' E 001°54'2222.0
2014-Aug-01 02:33N 39°26' E 001°25'72 5.4
2014-Jul-31 13:05N 39°18' W 000°08'1721.7
2014-Jul-31 12:19N 39°05' E 000°05'1924.4
2014-Jul-31 11:32N 38°50' E 000°21'1919.4
2014-Jul-31 10:33N 38°31' E 000°18'2121.1
2014-Jul-31 09:33N 38°14' E 000°02'2423.8
2014-Jul-31 08:33N 37°54' W 000°14'2423.6
2014-Jul-31 07:33N 37°35' W 000°31'2323.1
2014-Jul-31 06:33N 37°19' W 000°53'2322.9
2014-Jul-31 05:33N 37°04' W 001°15'2222.0
2014-Jul-31 04:33N 36°49' W 001°35'2221.9
2014-Jul-31 03:32N 36°34' W 001°55'2121.3
2014-Jul-31 02:33N 36°22' W 002°17'20520.4
2014-Jul-30 16:28N 36°27' W 006°32'  
2014-Jul-23 10:18N 36°32' W 006°17'  

Dump ship's entire track history